Flight Track Log - Related Links

Times and Time Zones

All times are in EDT time to prevent confusion due to time zone crossing. See the FLG4262 flight status page for this flight to view local times or setup timezone preferences in your user account.

Time Position Orientation Groundspeed Altitude Reporting Facility
EDT Latitude Longitude Course Direction KTS MPH feet Rate Location/Type
Mon 03:57:18 PM 42.2294 -83.3367 33° Northeast 150 173 1,300  Level Cleveland Center
Mon 03:57:55 PM 42.2519 -83.3172 33° Northeast 175 201 2,500 1,957 Climbing Cleveland Center
Mon 03:58:50 PM 42.3003 -83.2872 25° Northeast 225 259 4,300 2,122 Climbing Cleveland Center
Mon 03:59:17 PM 42.3247 -83.2714 26° Northeast 222 255 5,400 2,877 Climbing Cleveland Center
Mon 04:00:03 PM 42.3736 -83.2325 30° Northeast 260 299 7,800 2,952 Climbing Cleveland Center
Mon 04:00:20 PM 42.3819 -83.2114 62° Northeast 265 305 8,500 1,747 Climbing Cleveland Center
Mon 04:01:22 PM 42.3833 -83.1017 89° East 275 316 10,100 726 Climbing Cleveland Center
Mon 04:02:24 PM 42.3869 -82.9769 88° East 328 377 10,000 726 Descending Cleveland Center
Mon 04:03:26 PM 42.3589 -82.8533 107° East 346 398 11,600 1,452 Climbing Cleveland Center
Mon 04:04:28 PM 42.3636 -82.7167 87° East 362 417 13,000 1,548 Climbing Cleveland Center
Mon 04:05:30 PM 42.3672 -82.5769 88° East 369 425 14,800 1,790 Climbing Cleveland Center
Mon 04:06:32 PM 42.3689 -82.4356 89° East 375 432 16,700 1,935 Climbing Cleveland Center
Mon 04:07:34 PM 42.3628 -82.2653 93° East 376 433 18,800 1,680 Climbing Cleveland Center
Mon 04:08:37 PM 42.3561 -82.1233 94° East 384 442 20,200 1,104 Climbing Cleveland Center
Mon 04:09:39 PM 42.3503 -81.9753 93° East 390 449 21,100 677 Climbing Cleveland Center
Mon 04:10:41 PM 42.3422 -81.8183 94° East 410 472 21,600 484 Climbing Cleveland Center
Mon 04:11:43 PM 42.3347 -81.6536 93° East 427 491 22,100 629 Climbing Cleveland Center
Mon 04:12:45 PM 42.3275 -81.4844 93° East 440 506 22,900 968 Climbing Cleveland Center
Mon 04:13:47 PM 42.3175 -81.2897 94° East 442 509 24,100 1,065 Climbing Cleveland Center
Mon 04:14:49 PM 42.3092 -81.1247 94° East 439 505 25,100 968 Climbing Cleveland Center
Mon 04:15:51 PM 42.3011 -80.9606 94° East 437 503 26,100 995 Climbing Cleveland Center
Mon 04:17:56 PM 42.2844 -80.6372 96° East 427 491 28,200 930 Climbing Cleveland Center
Mon 04:18:58 PM 42.2744 -80.4767 95° East 425 489 29,000 387 Climbing Cleveland Center
Mon 04:20:00 PM 42.2658 -80.3083 94° East 441 507 29,000  Level Cleveland Center
Mon 04:21:02 PM 42.2286 -80.1447 107° East 450 518 29,000  Level Cleveland Center
Mon 04:22:04 PM 42.1781 -79.9467 109° East 462 532 29,000  Level Cleveland Center
Mon 04:23:06 PM 42.1831 -79.7633 88° East 489 563 29,000 -484 Level Cleveland Center
Mon 04:24:08 PM 42.1869 -79.5850 88° East 486 559 28,000 -1,548 Descending Cleveland Center
Mon 04:25:10 PM 42.1906 -79.4086 88° East 475 547 25,800 -2,274 Descending Cleveland Center
Mon 04:26:12 PM 42.1942 -79.2425 88° East 447 514 23,300 -1,984 Descending Cleveland Center
Mon 04:27:14 PM 42.1975 -79.0844 88° East 425 489 21,700 -1,104 Descending Cleveland Center
Mon 04:28:17 PM 42.2006 -78.9022 89° East 411 473 21,000 -336 Descending Cleveland Center
Mon 04:29:19 PM 42.2028 -78.7594 89° East 411 473 21,000  Level Cleveland Center
Mon 04:30:21 PM 42.2050 -78.6122 89° East 401 461 21,000  Level Cleveland Center
Mon 04:31:23 PM 42.2069 -78.4397 89° East 390 449 21,000  Level Cleveland Center
Mon 04:32:25 PM 42.2083 -78.2950 89° East 390 449 21,000  Level Cleveland Center
Mon 04:33:27 PM 42.2100 -78.1467 89° East 392 451 21,000  Level Cleveland Center
Mon 04:34:29 PM 42.2111 -77.9953 89° East 403 464 21,000 -629 Level Cleveland Center
Mon 04:35:31 PM 42.2122 -77.8439 89° East 404 465 19,700 -1,258 Descending Cleveland Center
Mon 04:36:33 PM 42.2128 -77.6656 90° East 404 465 18,400 -1,113 Descending Cleveland Center
Mon 04:37:35 PM 42.2139 -77.5144 89° East 404 465 17,400 -1,210 Descending Cleveland Center
Mon 04:38:37 PM 42.2133 -77.3650 90° East 405 466 15,900 -1,597 Descending Cleveland Center
Mon 04:39:39 PM 42.2144 -77.2244 89° East 383 441 14,100 -1,935 Descending Cleveland Center
Mon 04:41:12 PM 42.2139 -77.0033 90° East 368 423 10,900 -2,129 Descending New York Center
Mon 04:41:43 PM 42.2147 -76.9311 89° East 353 406 9,700 -1,226 Descending Cleveland Center
Mon 04:42:45 PM 42.2144 -76.8186 90° East 303 349 9,000 -339 Descending Cleveland Center
Mon 04:43:47 PM 42.2136 -76.7122 91° East 286 329 9,000  Level Cleveland Center
Mon 04:44:49 PM 42.2131 -76.5994 90° East 298 343 9,000  Level Cleveland Center
Mon 04:45:51 PM 42.2131 -76.4883 90° East 299 344 9,000 -968 Level Cleveland Center
Mon 04:46:53 PM 42.2500 -76.3975 61° Northeast 299 344 7,000 -2,177 Descending Cleveland Center
Mon 04:47:55 PM 42.3083 -76.3186 45° Northeast 288 331 4,500 -1,645 Descending Cleveland Center
Mon 04:48:57 PM 42.3692 -76.2353 45° Northeast 281 323 3,600 -581 Descending Cleveland Center
Mon 04:49:59 PM 42.4022 -76.1819 50° Northeast 230 265 3,300 -92 Descending Cleveland Center
Mon 04:52:12 PM 42.3608 -76.1192 132° Southeast 100 115 3,300  Level New York Center
Mon 04:53:12 PM 42.3228 -76.0881 149° Southeast 133 153 3,300  Level New York Center
Mon 04:54:13 PM 42.2867 -76.0544 145° Southeast 152 175 3,300 -300 Level New York Center
Mon 04:55:12 PM 42.2550 -76.0211 142° Southeast 158 182 2,700 -605 Descending New York Center
Mon 04:56:12 PM 42.2186 -75.9928 150° Southeast 148 170 2,100 -600 Descending New York Center

Login

Don't have an account? Register now (free) for customized features, flight alerts, and more!